Time;durP1;ratioP1;P1;durP2;ratioP2;P2;SDS_P1;SDS_P2;PMS_P1;PMS_P2;Temp;Humidity;BMP_temperature;BMP_pressure;BME280_temperature;BME280_humidity;BME280_pressure;Samples;Min_cycle;Max_cycle;Signal;HPM_P1;HPM_P2
2023/07/28 00:02:17;;;;;;;9.37;7.30;;;;;;;14.80;100.00;99746.50;7357446;19;21049;-49
2023/07/28 00:04:47;;;;;;;9.83;7.00;;;;;;;14.77;100.00;99740.41;7385158;19;20407;-49
2023/07/28 00:07:16;;;;;;;10.63;7.50;;;;;;;14.76;100.00;99751.66;7360083;19;20423;-50
2023/07/28 00:09:48;;;;;;;9.37;7.37;;;;;;;14.76;100.00;99757.69;7385760;19;20446;-50
2023/07/28 00:12:18;;;;;;;11.60;7.53;;;;;;;14.75;100.00;99753.38;7361329;19;20423;-51
2023/07/28 00:14:47;;;;;;;10.53;7.83;;;;;;;14.75;100.00;99755.06;7385796;19;21085;-50
2023/07/28 00:17:17;;;;;;;11.80;7.50;;;;;;;14.75;100.00;99752.47;7360268;19;20423;-51
2023/07/28 00:19:46;;;;;;;9.90;7.33;;;;;;;14.75;100.00;99742.97;7387318;19;20891;-51
2023/07/28 00:22:16;;;;;;;10.63;7.70;;;;;;;14.74;100.00;99751.63;7368520;19;20419;-50
2023/07/28 00:24:48;;;;;;;10.50;7.37;;;;;;;14.79;100.00;99741.28;7393569;19;20404;-50
2023/07/28 00:27:18;;;;;;;11.50;8.50;;;;;;;14.76;100.00;99734.31;7368708;19;20419;-53
2023/07/28 00:29:48;;;;;;;14.57;8.63;;;;;;;14.74;100.00;99740.31;7394089;19;20435;-51
2023/07/28 00:32:17;;;;;;;10.80;8.40;;;;;;;14.71;100.00;99734.25;7368862;19;20423;-50
2023/07/28 00:34:47;;;;;;;12.50;9.63;;;;;;;14.75;100.00;99731.72;7393859;19;20400;-50
2023/07/28 00:37:16;;;;;;;10.37;8.10;;;;;;;14.70;100.00;99727.34;7368472;19;20974;-50
2023/07/28 00:39:49;;;;;;;9.47;7.60;;;;;;;14.77;100.00;99730.03;7393916;19;20527;-48
2023/07/28 00:42:18;;;;;;;10.57;7.60;;;;;;;14.78;100.00;99718.78;7369829;19;20430;-53
2023/07/28 00:44:48;;;;;;;12.07;8.13;;;;;;;14.76;100.00;99717.91;7393637;19;20407;-50
2023/07/28 00:47:17;;;;;;;10.10;7.70;;;;;;;14.76;100.00;99725.69;7368480;19;20411;-53
2023/07/28 00:49:47;;;;;;;10.47;7.60;;;;;;;14.71;100.00;99726.47;7393856;19;20451;-49
2023/07/28 00:52:17;;;;;;;11.90;9.10;;;;;;;14.74;100.00;99727.34;7369295;19;20429;-53
2023/07/28 00:54:49;;;;;;;12.33;8.37;;;;;;;14.72;100.00;99733.41;7393302;19;20491;-50
2023/07/28 00:57:19;;;;;;;13.20;8.93;;;;;;;14.68;100.00;99736.81;7368337;19;20427;-52
2023/07/28 00:59:49;;;;;;;12.13;8.77;;;;;;;14.69;100.00;99738.59;7394191;19;20449;-49
2023/07/28 01:02:20;;;;;;;11.00;8.70;;;;;;;14.72;100.00;99725.63;7365712;19;20411;-51
2023/07/28 01:04:50;;;;;;;11.30;7.80;;;;;;;14.76;100.00;99736.06;7393707;19;20438;-51
2023/07/28 01:07:26;;;;;;;12.47;8.23;;;;;;;14.80;100.00;99719.63;7367408;19;20453;-50
2023/07/28 01:10:04;;;;;;;12.13;8.83;;;;;;;14.76;100.00;99720.50;7393347;19;20443;-48
2023/07/28 01:12:34;;;;;;;10.00;8.00;;;;;;;14.74;100.00;99722.16;7369190;19;20431;-49
2023/07/28 01:15:04;;;;;;;11.83;8.17;;;;;;;14.74;100.00;99723.06;7389289;19;20491;-48
2023/07/28 01:17:33;;;;;;;11.90;9.07;;;;;;;14.71;100.00;99721.28;7368820;19;20437;-50
2023/07/28 01:20:03;;;;;;;11.20;8.70;;;;;;;14.72;100.00;99717.81;7395229;19;20447;-49
2023/07/28 01:23:07;;;;;;;10.77;8.47;;;;;;;14.72;100.00;99722.16;7369209;19;20419;-50
2023/07/28 01:25:50;;;;;;;10.80;8.10;;;;;;;14.68;100.00;99716.06;7391027;19;20427;-51
2023/07/28 01:28:23;;;;;;;10.10;7.87;;;;;;;14.64;100.00;99727.28;7369486;19;20427;-48
2023/07/28 01:30:52;;;;;;;10.33;7.63;;;;;;;14.66;100.00;99727.31;7394310;19;20399;-51
2023/07/28 01:33:22;;;;;;;9.27;7.57;;;;;;;14.68;100.00;99729.03;7368252;19;20427;-52
2023/07/28 01:35:52;;;;;;;12.13;8.83;;;;;;;14.69;100.00;99730.78;7394287;19;20411;-50
2023/07/28 01:38:21;;;;;;;10.33;7.70;;;;;;;14.70;100.00;99718.66;7367284;19;20450;-51
2023/07/28 01:40:51;;;;;;;11.37;8.37;;;;;;;14.70;100.00;99729.94;7393520;19;20404;-48
2023/07/28 01:43:23;;;;;;;11.50;8.20;;;;;;;14.70;100.00;99732.53;7367810;19;20424;-50
2023/07/28 01:45:53;;;;;;;12.17;7.60;;;;;;;14.69;100.00;99728.19;7393908;19;20391;-50
2023/07/28 01:48:23;;;;;;;12.03;8.00;;;;;;;14.73;100.00;99723.91;7368653;19;20434;-51
2023/07/28 01:50:52;;;;;;;11.90;8.00;;;;;;;14.71;100.00;99721.28;7395171;19;20802;-50
2023/07/28 01:53:22;;;;;;;9.20;7.17;;;;;;;14.71;100.00;99726.47;7367656;19;20800;-50
2023/07/28 01:55:51;;;;;;;10.07;7.60;;;;;;;14.70;100.00;99723.84;7393737;19;20418;-51
2023/07/28 01:58:23;;;;;;;11.73;8.57;;;;;;;14.69;100.00;99727.31;7367288;19;20551;-50
2023/07/28 02:00:53;;;;;;;8.67;7.13;;;;;;;14.70;100.00;99726.44;7392725;19;20783;-50
2023/07/28 02:03:23;;;;;;;10.87;8.20;;;;;;;14.71;100.00;99736.84;7365307;19;20444;-54
2023/07/28 02:05:53;;;;;;;9.90;7.03;;;;;;;14.71;100.00;99734.25;7393429;19;20483;-50
2023/07/28 02:08:23;;;;;;;8.57;6.63;;;;;;;14.68;100.00;99736.81;7367982;19;20429;-51
2023/07/28 02:10:52;;;;;;;9.47;7.10;;;;;;;14.69;100.00;99741.19;7392683;19;20399;-50
2023/07/28 02:13:24;;;;;;;10.80;7.70;;;;;;;14.70;100.00;99745.50;7366919;19;20427;-53
2023/07/28 02:15:54;;;;;;;8.40;6.70;;;;;;;14.67;100.00;99755.84;7393256;19;20408;-49
2023/07/28 02:18:24;;;;;;;8.00;6.30;;;;;;;14.69;100.00;99753.28;7367527;19;21261;-50
2023/07/28 02:20:53;;;;;;;7.73;6.20;;;;;;;14.67;100.00;99755.84;7391909;19;20969;-50
2023/07/28 02:23:23;;;;;;;8.60;6.80;;;;;;;14.67;100.00;99753.25;7367313;19;20447;-53
2023/07/28 02:25:52;;;;;;;9.13;6.50;;;;;;;14.68;100.00;99751.53;7393053;19;20407;-50
2023/07/28 02:28:24;;;;;;;8.63;6.80;;;;;;;14.67;100.00;99755.84;7367271;19;20462;-53
2023/07/28 02:30:54;;;;;;;10.17;6.03;;;;;;;14.70;100.00;99766.28;7392950;19;20431;-51
2023/07/28 02:33:24;;;;;;;8.07;6.47;;;;;;;14.65;100.00;99767.97;7366053;19;20498;-51
2023/07/28 02:35:53;;;;;;;8.60;6.87;;;;;;;14.64;100.00;99774.00;7392350;19;20773;-52
2023/07/28 02:38:23;;;;;;;9.83;7.47;;;;;;;14.66;100.00;99780.06;7366453;19;20435;-48
2023/07/28 02:40:53;;;;;;;9.97;7.30;;;;;;;14.62;100.00;99778.31;7392291;19;20411;-51
2023/07/28 02:43:25;;;;;;;9.07;7.27;;;;;;;14.62;100.00;99770.53;7365140;19;20435;-49
2023/07/28 02:45:56;;;;;;;12.60;8.90;;;;;;;14.62;100.00;99770.53;7392583;19;20422;-54
2023/07/28 02:48:25;;;;;;;9.63;7.60;;;;;;;14.61;100.00;99773.97;7366952;19;20427;-48
2023/07/28 02:50:55;;;;;;;9.87;7.20;;;;;;;14.61;100.00;99771.38;7392233;19;20975;-48
2023/07/28 02:53:25;;;;;;;10.13;7.27;;;;;;;14.58;100.00;99772.22;7366091;19;20450;-48
2023/07/28 02:55:54;;;;;;;9.17;6.67;;;;;;;14.57;100.00;99774.81;7392259;19;21031;-50
2023/07/28 02:58:26;;;;;;;10.17;6.60;;;;;;;14.57;100.00;99774.81;7364628;19;20419;-50
2023/07/28 03:00:56;;;;;;;12.33;8.47;;;;;;;14.58;100.00;99781.75;7391168;19;21064;-50
2023/07/28 03:03:25;;;;;;;69.50;38.90;;;;;;;14.66;100.00;99779.22;7363972;19;20427;-50
2023/07/28 03:05:56;;;;;;;60.23;34.83;;;;;;;14.63;100.00;99779.19;7391654;19;20876;-52
2023/07/28 03:08:25;;;;;;;21.97;13.90;;;;;;;14.62;100.00;99780.94;7365623;19;20440;-50
2023/07/28 03:10:59;;;;;;;40.20;23.80;;;;;;;14.64;100.00;99784.38;7390634;19;20404;-53
2023/07/28 03:13:31;;;;;;;31.40;19.67;;;;;;;14.64;100.00;99787.00;7369700;19;20439;-50
2023/07/28 03:16:01;;;;;;;30.80;16.83;;;;;;;14.63;100.00;99784.38;7390401;19;20411;-51
2023/07/28 03:18:30;;;;;;;25.93;15.87;;;;;;;14.64;100.00;99787.00;7369613;19;20435;-50
2023/07/28 03:21:00;;;;;;;15.80;10.00;;;;;;;14.65;100.00;99786.13;7393217;19;20406;-50
2023/07/28 03:23:29;;;;;;;16.10;10.73;;;;;;;14.66;100.00;99779.22;7369852;19;20531;-50
2023/07/28 03:25:59;;;;;;;7.30;5.50;;;;;;;14.67;100.00;99792.19;7392888;19;20406;-50
2023/07/28 03:28:31;;;;;;;16.83;11.10;;;;;;;14.68;100.00;99786.13;7369899;19;20452;-50
2023/07/28 03:31:01;;;;;;;16.17;10.10;;;;;;;14.72;100.00;99790.50;7391078;19;20408;-51
2023/07/28 03:33:30;;;;;;;13.53;8.50;;;;;;;14.72;100.00;99792.25;7369336;19;20419;-50
2023/07/28 03:36:00;;;;;;;10.77;7.37;;;;;;;14.68;100.00;99788.75;7390214;19;20995;-50
2023/07/28 03:38:29;;;;;;;10.23;7.00;;;;;;;14.68;100.00;99787.88;7369579;19;20506;-51
2023/07/28 03:40:59;;;;;;;9.27;6.97;;;;;;;14.67;100.00;99797.38;7390563;19;20416;-50
2023/07/28 03:43:31;;;;;;;7.37;5.30;;;;;;;14.64;100.00;99794.78;7369072;19;20814;-50
2023/07/28 03:46:01;;;;;;;7.10;5.60;;;;;;;14.62;100.00;99806.88;7390439;19;20418;-49
2023/07/28 03:48:30;;;;;;;7.07;5.60;;;;;;;14.66;100.00;99802.59;7369301;19;20409;-52
2023/07/28 03:51:00;;;;;;;6.90;5.27;;;;;;;14.66;100.00;99806.03;7390364;19;20506;-50
2023/07/28 03:53:30;;;;;;;6.50;5.07;;;;;;;14.68;100.00;99808.66;7368527;19;20974;-50
2023/07/28 03:55:59;;;;;;;7.13;5.40;;;;;;;14.67;100.00;99807.78;7391427;19;20971;-50
2023/07/28 03:58:31;;;;;;;6.40;5.30;;;;;;;14.66;100.00;99813.81;7376129;19;20435;-49
2023/07/28 04:01:01;;;;;;;6.80;5.77;;;;;;;14.64;100.00;99823.34;7394412;19;20482;-57
2023/07/28 04:03:31;;;;;;;8.00;6.20;;;;;;;14.58;100.00;99818.06;7375942;19;20437;-51
2023/07/28 04:06:00;;;;;;;7.50;5.67;;;;;;;14.55;100.00;99821.50;7396266;19;20415;-50
2023/07/28 04:08:30;;;;;;;8.07;6.17;;;;;;;14.54;100.00;99826.69;7376511;19;20459;-55
2023/07/28 04:10:59;;;;;;;9.63;6.80;;;;;;;14.52;100.00;99818.88;7396381;19;20845;-53
2023/07/28 04:13:32;;;;;;;6.60;5.50;;;;;;;14.51;100.00;99831.84;7375353;19;20435;-51
2023/07/28 04:16:01;;;;;;;8.80;6.80;;;;;;;14.50;100.00;99830.97;7389588;19;20400;-54
2023/07/28 04:18:31;;;;;;;9.00;7.03;;;;;;;14.50;100.00;99824.91;7396254;19;20419;-50
2023/07/28 04:21:01;;;;;;;8.97;6.97;;;;;;;14.52;100.00;99823.19;7395077;19;20406;-54
2023/07/28 04:23:30;;;;;;;8.70;6.10;;;;;;;14.52;100.00;99829.25;7375506;19;20435;-52
2023/07/28 04:26:00;;;;;;;9.50;7.13;;;;;;;14.61;100.00;99828.47;7396228;19;20399;-53
2023/07/28 04:28:32;;;;;;;8.03;6.27;;;;;;;14.61;100.00;99833.66;7376044;19;20526;-53
2023/07/28 04:31:02;;;;;;;7.83;6.03;;;;;;;14.55;100.00;99828.41;7379617;19;20432;-51
2023/07/28 04:33:32;;;;;;;8.73;6.43;;;;;;;14.60;100.00;99837.13;7395992;19;20951;-51
2023/07/28 04:36:01;;;;;;;9.23;6.97;;;;;;;14.59;100.00;99840.56;7386586;19;20403;-50
2023/07/28 04:38:31;;;;;;;8.53;6.27;;;;;;;14.62;100.00;99851.00;7396708;19;20376;-50
2023/07/28 04:41:01;;;;;;;7.50;5.97;;;;;;;14.66;100.00;99850.16;7394263;19;20425;-50
2023/07/28 04:43:33;;;;;;;7.37;6.20;;;;;;;14.68;100.00;99845.84;7374924;19;20438;-48
2023/07/28 04:46:03;;;;;;;9.17;6.67;;;;;;;14.71;100.00;99845.00;7374565;19;20408;-48
2023/07/28 04:48:32;;;;;;;11.23;7.17;;;;;;;14.70;100.00;99848.47;7395884;19;20768;-50
2023/07/28 04:51:02;;;;;;;12.73;7.90;;;;;;;14.71;100.00;99850.22;7379449;19;20403;-49
2023/07/28 04:53:32;;;;;;;9.43;6.90;;;;;;;14.79;100.00;99852.91;7395881;19;20492;-51
2023/07/28 04:56:03;;;;;;;9.43;6.23;;;;;;;14.79;100.00;99858.13;7387924;19;20432;-48
2023/07/28 04:58:35;;;;;;;8.63;6.57;;;;;;;14.84;100.00;99859.91;7397610;19;20977;-50
2023/07/28 05:01:08;;;;;;;8.50;6.70;;;;;;;14.82;100.00;99864.19;7365712;19;20789;-52
2023/07/28 05:03:37;;;;;;;7.70;6.50;;;;;;;14.83;100.00;99859.91;7395975;19;20951;-49
2023/07/28 05:06:07;;;;;;;10.30;7.67;;;;;;;14.83;100.00;99867.69;7367911;19;20407;-49
2023/07/28 05:08:36;;;;;;;8.87;7.20;;;;;;;14.89;100.00;99875.53;7393496;19;20483;-49
2023/07/28 05:11:06;;;;;;;9.90;7.73;;;;;;;14.77;100.00;99871.06;7369100;19;20403;-48
2023/07/28 05:13:38;;;;;;;9.17;6.80;;;;;;;14.83;100.00;99876.31;7393119;19;20403;-49
2023/07/28 05:16:08;;;;;;;9.40;6.90;;;;;;;14.90;100.00;99885.06;7369158;19;20415;-48
2023/07/28 05:18:37;;;;;;;9.97;7.27;;;;;;;14.93;100.00;99895.47;7394230;19;20749;-50
2023/07/28 05:21:07;;;;;;;9.20;7.70;;;;;;;14.92;100.00;99896.31;7370149;19;20414;-51
2023/07/28 05:23:36;;;;;;;9.80;7.57;;;;;;;15.01;100.00;99894.69;7393492;19;20758;-47
2023/07/28 05:26:06;;;;;;;8.40;6.63;;;;;;;15.12;100.00;99893.06;7367874;19;20479;-49
2023/07/28 05:28:38;;;;;;;9.57;7.60;;;;;;;15.08;100.00;99886.97;7394012;19;20479;-49
2023/07/28 05:31:08;;;;;;;11.30;7.70;;;;;;;15.10;100.00;99890.47;7368415;19;20463;-48
2023/07/28 05:33:41;;;;;;;8.60;7.30;;;;;;;15.09;100.00;99893.03;7393298;19;20412;-48
2023/07/28 05:36:10;;;;;;;9.47;7.77;;;;;;;15.00;100.00;99901.59;7369955;19;20413;-47
2023/07/28 05:38:40;;;;;;;10.73;8.17;;;;;;;15.02;100.00;99902.47;7393288;19;20931;-51
2023/07/28 05:41:10;;;;;;;13.43;8.43;;;;;;;15.10;100.00;99899.97;7368948;19;20419;-48
2023/07/28 05:43:42;;;;;;;8.57;6.80;;;;;;;15.17;100.00;99896.56;7393010;19;20471;-49
2023/07/28 05:46:11;;;;;;;12.00;7.37;;;;;;;15.21;100.00;99900.06;7370032;19;20507;-48
2023/07/28 05:48:41;;;;;;;11.20;8.40;;;;;;;15.27;100.00;99902.72;7392860;19;20411;-51
2023/07/28 05:51:11;;;;;;;11.20;8.27;;;;;;;15.33;100.00;99901.91;7368394;19;20400;-50
2023/07/28 05:53:40;;;;;;;10.00;7.93;;;;;;;15.28;100.00;99906.19;7392875;19;20404;-48
2023/07/28 05:56:10;;;;;;;9.90;7.83;;;;;;;15.31;100.00;99908.81;7369396;19;20430;-49
2023/07/28 05:58:42;;;;;;;10.93;8.77;;;;;;;15.34;100.00;99914.91;7392078;19;21021;-49
2023/07/28 06:01:12;;;;;;;10.53;8.00;;;;;;;15.36;100.00;99909.72;7362619;19;20410;-51
2023/07/28 06:03:41;;;;;;;10.30;7.83;;;;;;;15.39;100.00;99912.38;7391348;19;20495;-51
2023/07/28 06:06:14;;;;;;;10.60;8.70;;;;;;;15.47;100.00;99912.41;7365992;19;20418;-51
2023/07/28 06:08:44;;;;;;;8.97;7.40;;;;;;;15.56;100.00;99911.63;7389402;19;20423;-50
2023/07/28 06:11:13;;;;;;;10.90;8.00;;;;;;;15.49;100.00;99906.38;7367853;19;20404;-50
2023/07/28 06:13:46;;;;;;;11.67;7.80;;;;;;;15.54;100.00;99916.81;7392245;19;20407;-50
2023/07/28 06:16:16;;;;;;;11.90;9.20;;;;;;;15.58;100.00;99922.91;7367611;19;20487;-53
2023/07/28 06:18:45;;;;;;;11.90;7.37;;;;;;;15.57;100.00;99926.34;7388548;19;20489;-49
2023/07/28 06:21:15;;;;;;;8.70;7.57;;;;;;;15.58;100.00;99925.50;7366550;19;20408;-52
2023/07/28 06:23:44;;;;;;;9.57;7.33;;;;;;;15.53;100.00;99928.94;7394273;19;20426;-48
2023/07/28 06:26:14;;;;;;;26.40;11.30;;;;;;;15.63;100.00;99942.00;7366315;19;20414;-51
2023/07/28 06:28:47;;;;;;;8.93;7.30;;;;;;;15.65;100.00;99948.94;7389779;19;20451;-50
2023/07/28 06:31:16;;;;;;;9.20;7.50;;;;;;;15.72;100.00;99951.59;7366927;19;20419;-52
2023/07/28 06:33:46;;;;;;;9.77;7.80;;;;;;;15.77;100.00;99944.72;7391724;19;20479;-48
2023/07/28 06:36:17;;;;;;;9.03;7.60;;;;;;;15.82;100.00;99952.53;7366178;19;21302;-51
2023/07/28 06:38:48;;;;;;;8.97;7.57;;;;;;;15.84;100.00;99956.03;7390175;19;20439;-49
2023/07/28 06:41:18;;;;;;;8.83;6.33;;;;;;;15.89;100.00;99955.19;7365819;19;20736;-53
2023/07/28 06:43:50;;;;;;;8.77;6.07;;;;;;;15.85;100.00;99957.78;7391910;19;20417;-55
2023/07/28 06:46:20;;;;;;;10.30;6.70;;;;;;;15.78;100.00;99957.72;7366829;19;20396;-48
2023/07/28 06:48:49;;;;;;;8.17;6.60;;;;;;;15.78;100.00;99951.66;7390502;19;20435;-51
2023/07/28 06:51:19;;;;;;;9.30;6.83;;;;;;;15.88;100.00;99961.28;7364445;19;20415;-52
2023/07/28 06:53:48;;;;;;;7.60;6.10;;;;;;;15.96;100.00;99974.38;7389316;19;20404;-50
2023/07/28 06:56:18;;;;;;;8.57;6.93;;;;;;;16.09;100.00;99988.31;7365932;19;20486;-51
2023/07/28 06:58:51;;;;;;;9.77;6.53;;;;;;;16.15;100.00;99990.09;7391032;19;20511;-47
2023/07/28 07:01:40;;;;;;;8.20;5.63;;;;;;;16.02;100.00;100000.44;7361824;19;20403;-49
2023/07/28 07:04:11;;;;;;;7.20;5.40;;;;;;;16.10;100.00;100002.22;7390191;19;20407;-48
2023/07/28 07:06:40;;;;;;;5.97;5.10;;;;;;;16.16;100.00;100020.47;7365716;19;20471;-50
2023/07/28 07:09:14;;;;;;;9.47;6.60;;;;;;;16.28;100.00;100032.69;7390603;19;20451;-50
2023/07/28 07:11:43;;;;;;;7.07;5.90;;;;;;;16.32;100.00;100037.06;7365216;19;20419;-50
2023/07/28 07:14:16;;;;;;;7.27;6.00;;;;;;;16.23;100.00;100040.47;7389445;19;20926;-50
2023/07/28 07:16:46;;;;;;;7.87;6.60;;;;;;;16.28;100.00;100043.97;7366103;19;20498;-51
2023/07/28 07:19:16;;;;;;;7.20;5.70;;;;;;;16.32;100.00;100053.53;7389642;19;20518;-49
2023/07/28 07:21:47;;;;;;;8.17;6.10;;;;;;;16.37;100.00;100060.50;7366528;19;20507;-52
2023/07/28 07:24:17;;;;;;;8.70;6.70;;;;;;;16.35;100.00;100067.44;7389986;19;20408;-50
2023/07/28 07:26:47;;;;;;;7.77;6.57;;;;;;;16.37;100.00;100073.53;7365488;19;21038;-51
2023/07/28 07:29:19;;;;;;;20.07;6.87;;;;;;;16.32;100.00;100079.56;7390437;19;20506;-50
2023/07/28 07:31:54;;;;;;;10.07;7.17;;;;;;;16.38;100.00;100081.34;7372512;19;20580;-48
2023/07/28 07:34:24;;;;;;;11.83;7.80;;;;;;;16.30;100.00;100080.41;7396496;19;20398;-49
2023/07/28 07:36:53;;;;;;;8.63;6.37;;;;;;;16.23;100.00;100084.72;7370970;19;20433;-48
2023/07/28 07:39:23;;;;;;;8.17;6.80;;;;;;;16.31;100.00;100085.63;7396592;19;20504;-48
2023/07/28 07:41:52;;;;;;;6.87;5.90;;;;;;;16.36;100.00;100083.06;7368791;19;20514;-46
2023/07/28 07:44:25;;;;;;;9.73;7.40;;;;;;;16.37;100.00;100081.34;7396022;19;20444;-53
2023/07/28 07:46:54;;;;;;;13.90;6.73;;;;;;;16.38;100.00;100083.06;7370368;19;20930;-47
2023/07/28 07:49:24;;;;;;;7.90;6.00;;;;;;;16.38;100.00;100093.47;7396372;19;20511;-51
2023/07/28 07:51:53;;;;;;;7.10;5.90;;;;;;;16.45;100.00;100088.34;7370530;19;20426;-53
2023/07/28 07:54:23;;;;;;;11.80;7.50;;;;;;;16.57;100.00;100091.88;7396150;19;20417;-50
2023/07/28 07:56:53;;;;;;;7.73;6.20;;;;;;;16.70;100.00;100090.22;7370460;19;20433;-54
2023/07/28 07:59:27;;;;;;;5.67;4.10;;;;;;;16.98;100.00;100092.97;7393559;19;20804;-53
2023/07/28 08:02:00;;;;;;;7.07;4.70;;;;;;;17.01;100.00;100100.81;7362946;19;20518;-53
2023/07/28 08:04:31;;;;;;;7.27;4.60;;;;;;;17.38;100.00;100116.63;7391456;19;21050;-50
2023/07/28 08:07:01;;;;;;;8.17;5.20;;;;;;;17.24;100.00;100136.56;7368158;19;20433;-56
2023/07/28 08:09:30;;;;;;;5.63;4.40;;;;;;;16.94;100.00;100146.81;7392013;19;20445;-53
2023/07/28 08:12:00;;;;;;;5.03;4.30;;;;;;;17.05;100.00;100162.53;7363015;19;20437;-53
2023/07/28 08:14:32;;;;;;;5.90;4.03;;;;;;;17.21;100.00;100180.84;7385575;19;20414;-49
2023/07/28 08:17:02;;;;;;;174.20;99.77;;;;;;;17.41;100.00;100180.94;7364245;19;20789;-49
2023/07/28 08:19:31;;;;;;;34.27;21.83;;;;;;;17.34;100.00;100193.06;7391830;19;20482;-53
2023/07/28 08:22:01;;;;;;;22.90;14.27;;;;;;;17.57;100.00;100192.31;7364686;19;20411;-48
2023/07/28 08:24:30;;;;;;;12.47;9.47;;;;;;;17.72;100.00;100204.53;7390592;19;20483;-48
2023/07/28 08:27:00;;;;;;;12.83;8.40;;;;;;;17.80;100.00;100209.78;7364779;19;20463;-50
2023/07/28 08:29:32;;;;;;;9.60;7.00;;;;;;;17.64;100.00;100207.13;7391431;19;20480;-51
2023/07/28 08:32:02;;;;;;;11.47;8.03;;;;;;;17.88;100.00;100204.56;7365948;19;20420;-51
2023/07/28 08:34:32;;;;;;;5.80;4.57;;;;;;;17.59;100.00;100213.19;7391700;19;20439;-49
2023/07/28 08:37:01;;;;;;;6.77;4.80;;;;;;;17.27;100.00;100213.03;7367252;19;20429;-48
2023/07/28 08:39:31;;;;;;;4.70;3.33;;;;;;;17.09;100.00;100223.34;7393708;19;20527;-49
2023/07/28 08:42:01;;;;;;;8.40;6.63;;;;;;;17.48;100.00;100223.59;7365846;19;20429;-48
2023/07/28 08:44:36;;;;;;;8.47;5.27;;;;;;;17.86;100.00;100238.53;7393466;19;20505;-47
2023/07/28 08:47:06;;;;;;;5.23;3.37;;;;;;;18.14;100.00;100264.72;7368312;19;20423;-46
2023/07/28 08:49:36;;;;;;;5.37;3.13;;;;;;;17.93;100.00;100282.03;7394309;19;20463;-49
2023/07/28 08:52:07;;;;;;;9.33;5.10;;;;;;;17.66;100.00;100309.75;7367315;19;20458;-47
2023/07/28 08:54:37;;;;;;;5.13;3.13;;;;;;;17.55;100.00;100296.63;7393745;19;20834;-48
2023/07/28 08:57:07;;;;;;;6.17;4.40;;;;;;;17.56;100.00;100313.16;7368068;19;20419;-47
2023/07/28 08:59:41;;;;;;;6.93;3.73;;;;;;;18.15;100.00;100304.75;7394718;19;20436;-48
2023/07/28 09:02:12;;;;;;;6.13;4.30;;;;;;;18.12;100.00;100334.34;7368336;19;20526;-49
2023/07/28 09:04:42;;;;;;;5.10;3.80;;;;;;;18.20;100.00;100345.66;7394861;19;20410;-52
2023/07/28 09:07:11;;;;;;;3.70;2.70;;;;;;;18.17;100.00;100361.34;7369229;19;20419;-51
2023/07/28 09:09:42;;;;;;;6.27;3.70;;;;;;;18.20;100.00;100382.22;7395196;19;20440;-51
2023/07/28 09:12:12;;;;;;;4.03;3.20;;;;;;;18.34;100.00;100402.28;7369364;19;20423;-49
2023/07/28 09:14:46;;;;;;;7.87;3.50;;;;;;;18.57;100.00;100409.34;7393499;19;20417;-49
2023/07/28 09:17:17;;;;;;;4.33;3.43;;;;;;;18.46;100.00;100414.53;7366160;19;20425;-51
2023/07/28 09:19:54;;;;;;;4.00;3.20;;;;;;;18.26;100.00;100411.81;7394596;19;20458;-48
2023/07/28 09:22:24;;;;;;;5.07;3.77;;;;;;;18.12;100.00;100399.59;7368147;19;20415;-51
2023/07/28 09:24:54;;;;;;;5.30;3.50;;;;;;;17.98;100.00;100398.59;7394755;19;20440;-48
2023/07/28 09:27:22;;;;;;;5.03;3.53;;;;;;;18.05;100.00;100383.00;7364287;19;20427;-51
2023/07/28 09:29:56;;;;;;;4.10;2.97;;;;;;;18.06;100.00;100366.47;7393391;19;20515;-48
2023/07/28 09:32:35;;;;;;;4.40;3.10;;;;;;;18.02;100.00;100375.16;7368243;19;20425;-49
2023/07/28 09:35:12;;;;;;;3.90;3.00;;;;;;;18.08;100.00;100363.88;7392120;19;20486;-48
2023/07/28 09:37:43;;;;;;;5.00;3.33;;;;;;;18.13;100.00;100370.00;7367932;19;20840;-49
2023/07/28 09:40:15;;;;;;;3.70;3.03;;;;;;;18.09;100.00;100391.72;7394310;19;21062;-49
2023/07/28 09:42:49;;;;;;;4.63;3.70;;;;;;;18.11;100.00;100389.13;7368682;19;20434;-48
2023/07/28 09:45:26;;;;;;;4.80;3.17;;;;;;;18.07;100.00;100403.91;7393475;19;20414;-48
2023/07/28 09:48:08;;;;;;;3.40;3.07;;;;;;;18.48;100.00;100395.38;7367796;19;20460;-47
2023/07/28 09:50:40;;;;;;;3.43;2.80;;;;;;;18.78;100.00;100395.47;7393527;19;21070;-53
2023/07/28 09:53:12;;;;;;;3.90;3.00;;;;;;;18.67;100.00;100416.31;7367137;19;20988;-45
2023/07/28 09:55:44;;;;;;;4.40;2.70;;;;;;;18.74;100.00;100425.94;7394002;19;20414;-47
2023/07/28 09:58:15;;;;;;;6.90;4.47;;;;;;;18.33;100.00;100426.66;7366051;19;20474;-51
2023/07/28 10:00:47;;;;;;;4.70;3.33;;;;;;;18.45;100.00;100428.44;7394227;19;20451;-50
2023/07/28 10:03:17;;;;;;;5.50;3.43;;;;;;;18.74;100.00;100417.22;7363233;19;20484;-51
2023/07/28 10:05:47;;;;;;;4.90;3.07;;;;;;;19.02;100.00;100423.41;7394182;19;20412;-49
2023/07/28 10:08:17;;;;;;;6.57;4.00;;;;;;;18.76;100.00;100437.25;7365847;19;20504;-56
2023/07/28 10:10:47;;;;;;;4.57;3.43;;;;;;;18.43;100.00;100443.22;7393470;19;20436;-54
2023/07/28 10:13:22;;;;;;;4.50;3.37;;;;;;;18.57;100.00;100427.63;7363670;19;20427;-51
2023/07/28 10:15:55;;;;;;;6.70;5.17;;;;;;;18.64;100.00;100424.16;7392716;19;20490;-50
2023/07/28 10:18:25;;;;;;;6.90;4.90;;;;;;;18.88;100.00;100427.72;7367255;19;20439;-50
2023/07/28 10:20:54;;;;;;;164.37;94.93;;;;;;;19.14;100.00;100442.59;7392078;19;20403;-55
2023/07/28 10:23:25;;;;;;;91.33;54.17;;;;;;;19.31;100.00;100455.69;7366617;19;20979;-49
2023/07/28 10:26:00;;;;;;;6.90;4.73;;;;;;;19.21;100.00;100464.38;7392560;19;20408;-51
2023/07/28 10:28:31;;;;;;;4.50;2.67;;;;;;;18.90;100.00;100444.25;7365623;19;20439;-53
2023/07/28 10:31:05;;;;;;;6.60;4.87;;;;;;;18.96;100.00;100449.50;7384712;19;20429;-49
2023/07/28 10:33:36;;;;;;;17.97;11.67;;;;;;;19.02;100.00;100452.16;7392486;19;21047;-48
2023/07/28 10:36:19;;;;;;;4.03;3.10;;;;;;;19.12;100.00;100449.56;7366243;19;20418;-51
2023/07/28 10:38:48;;;;;;;5.63;3.50;;;;;;;19.09;100.00;100446.94;7390999;19;20864;-49
2023/07/28 10:41:19;;;;;;;5.60;4.07;;;;;;;19.22;100.00;100442.63;7366756;19;20412;-49
2023/07/28 10:43:49;;;;;;;7.03;3.80;;;;;;;19.10;100.00;100449.56;7391603;19;20475;-50
2023/07/28 10:46:24;;;;;;;7.07;5.23;;;;;;;18.96;100.00;100465.19;7366846;19;20482;-51
2023/07/28 10:48:54;;;;;;;12.53;7.97;;;;;;;19.06;100.00;100486.16;7389585;19;20450;-49
2023/07/28 10:51:25;;;;;;;6.90;4.77;;;;;;;19.28;100.00;100487.94;7366758;19;20402;-50
2023/07/28 10:53:58;;;;;;;5.10;3.30;;;;;;;19.18;100.00;100491.41;7390708;19;20399;-51
2023/07/28 10:56:28;;;;;;;4.90;3.63;;;;;;;19.11;100.00;100508.81;7366423;19;20884;-50
2023/07/28 10:58:59;;;;;;;5.77;3.60;;;;;;;19.10;100.00;100514.94;7391547;19;20424;-50
2023/07/28 11:01:36;;;;;;;6.77;4.30;;;;;;;19.16;100.00;100511.44;7356278;19;20767;-39
2023/07/28 11:04:11;;;;;;;5.03;3.47;;;;;;;19.29;100.00;100518.44;7384710;19;20790;-39
2023/07/28 11:06:43;;;;;;;8.50;5.07;;;;;;;19.42;100.00;100510.59;7362958;19;20505;-42
2023/07/28 11:09:14;;;;;;;13.10;4.90;;;;;;;19.27;100.00;100506.22;7391618;19;20436;-41
2023/07/28 11:11:45;;;;;;;5.07;3.30;;;;;;;19.50;100.00;100498.44;7366543;19;20410;-39
2023/07/28 11:14:17;;;;;;;7.30;4.50;;;;;;;19.45;100.00;100499.28;7391029;19;20415;-39
2023/07/28 11:16:50;;;;;;;5.87;3.47;;;;;;;19.49;100.00;100490.56;7366221;19;20962;-42
2023/07/28 11:19:24;;;;;;;8.63;5.20;;;;;;;19.62;100.00;100496.66;7391524;19;20415;-39
2023/07/28 11:21:58;;;;;;;4.57;2.77;;;;;;;19.67;100.00;100515.88;7365752;19;20423;-42
2023/07/28 11:24:28;;;;;;;14.23;2.50;;;;;;;19.55;100.00;100512.34;7391342;19;20466;-38
2023/07/28 11:27:02;;;;;;;4.57;2.87;;;;;;;19.46;100.00;100494.06;7365263;19;20445;-39
2023/07/28 11:29:32;;;;;;;3.10;2.07;;;;;;;19.53;100.00;100487.09;7393124;19;20420;-38
2023/07/28 11:32:04;;;;;;;12.27;6.40;;;;;;;19.68;100.00;100499.28;7364734;19;20430;-42
2023/07/28 11:34:37;;;;;;;6.50;3.67;;;;;;;19.93;100.00;100525.44;7392382;19;20407;-38
2023/07/28 11:37:09;;;;;;;6.23;2.50;;;;;;;19.96;100.00;100542.06;7364907;19;20425;-39